Main page
METAR-TAF:

METAR-TAF

Airports :

Harbin Taiping International Airport

Harbin, China

latitude: 45-45N, longitude: 126-46E, elevation: 143 m

Current weather observation

The report was made 20 minutes ago, at 19:00 UTC
Wind 6 kt from the West/Southwest
Temperature 15°C
Humidity 94%
Pressure 1000 hPa
Visibility 10 km or more
no clouds below 1500 m and no cumulonimbus

METAR: ZYHB 181900Z 25003MPS CAVOK 15/14 Q1000 NOSIG

Time: 03:20 (19:20 UTC)

Forecast

The report was made 6 hours and 15 minutes ago, at 13:05 UTC
Forecast valid from 18 at 18 UTC to 19 at 18 UTC
Wind 8 kt from the West with gusts up to 17 kt
Visibility: 4000 m
Scattered clouds at a height of 2600 ft
mist

TAF: ZYHB 181305Z 1818/1918 26004G09MPS 4000 BR SCT026 TX25/1906Z TN15/1821Z

Weather observations and forecasts of more than 4000 airports (METAR and TAF reports).

The available stations are represented by yellow and red dots on the map.

Hover mouse over dot to see the name of the station.

Then click to see weather observations and forecasts.

To change the map : click on the green buttons with a black cross to zoom in, on the green button with a dash to zoom out, or on the green arrows for adjacent maps.


METAR-TAF: